sensor_id;sensor_type;location;lat;lon;timestamp;pressure;altitude;pressure_sealevel;temperature;humidity
60465;BME280;46314;52.392;9.758;2024-03-23T00:54:33;100106.66;;;10.50;100.00
60465;BME280;46314;52.392;9.758;2024-03-23T00:56:59;100105.63;;;10.09;100.00
60465;BME280;46314;52.392;9.758;2024-03-23T00:59:24;100100.22;;;10.40;100.00
60465;BME280;46314;52.392;9.758;2024-03-23T01:01:50;100101.63;;;10.15;100.00
60465;BME280;46314;52.392;9.758;2024-03-23T01:04:15;100098.28;;;10.04;100.00
60465;BME280;46314;52.392;9.758;2024-03-23T01:06:41;100102.84;;;9.73;100.00
60465;BME280;46314;52.392;9.758;2024-03-23T01:09:06;100093.19;;;10.34;100.00
60465;BME280;46314;52.392;9.758;2024-03-23T01:11:33;100094.31;;;10.56;100.00
60465;BME280;46314;52.392;9.758;2024-03-23T01:13:59;100085.50;;;10.54;100.00
60465;BME280;46314;52.392;9.758;2024-03-23T01:16:24;100094.31;;;10.33;100.00
60465;BME280;46314;52.392;9.758;2024-03-23T01:18:50;100080.91;;;10.49;100.00
60465;BME280;46314;52.392;9.758;2024-03-23T01:21:15;100075.19;;;9.95;100.00
60465;BME280;46314;52.392;9.758;2024-03-23T01:23:41;100079.34;;;10.34;100.00
60465;BME280;46314;52.392;9.758;2024-03-23T01:26:06;100071.50;;;10.36;100.00
60465;BME280;46314;52.392;9.758;2024-03-23T01:28:33;100070.13;;;10.11;100.00
60465;BME280;46314;52.392;9.758;2024-03-23T01:30:59;100066.47;;;9.38;100.00
60465;BME280;46314;52.392;9.758;2024-03-23T01:33:24;100061.03;;;10.33;100.00
60465;BME280;46314;52.392;9.758;2024-03-23T01:35:50;100058.94;;;9.80;100.00
60465;BME280;46314;52.392;9.758;2024-03-23T01:38:15;100055.59;;;9.41;100.00
60465;BME280;46314;52.392;9.758;2024-03-23T01:40:41;100052.13;;;9.86;100.00
60465;BME280;46314;52.392;9.758;2024-03-23T01:43:08;100043.72;;;9.91;100.00
60465;BME280;46314;52.392;9.758;2024-03-23T01:45:35;100049.13;;;9.46;100.00
60465;BME280;46314;52.392;9.758;2024-03-23T01:48:00;100052.63;;;9.52;100.00
60465;BME280;46314;52.392;9.758;2024-03-23T01:50:26;100049.66;;;9.34;100.00
60465;BME280;46314;52.392;9.758;2024-03-23T01:52:53;100044.41;;;9.60;100.00
60465;BME280;46314;52.392;9.758;2024-03-23T01:55:19;100041.38;;;9.20;100.00
60465;BME280;46314;52.392;9.758;2024-03-23T01:57:44;100033.16;;;9.29;100.00
60465;BME280;46314;52.392;9.758;2024-03-23T02:00:11;100036.25;;;9.78;100.00
60465;BME280;46314;52.392;9.758;2024-03-23T02:02:41;100032.69;;;9.63;100.00
60465;BME280;46314;52.392;9.758;2024-03-23T02:05:07;100034.13;;;9.75;100.00
60465;BME280;46314;52.392;9.758;2024-03-23T02:07:32;100029.59;;;9.79;100.00
60465;BME280;46314;52.392;9.758;2024-03-23T02:09:58;100029.81;;;10.05;100.00
60465;BME280;46314;52.392;9.758;2024-03-23T02:12:23;100030.63;;;9.69;100.00
60465;BME280;46314;52.392;9.758;2024-03-23T02:14:49;100020.59;;;10.10;100.00
60465;BME280;46314;52.392;9.758;2024-03-23T02:17:14;100010.81;;;10.12;100.00
60465;BME280;46314;52.392;9.758;2024-03-23T02:19:41;100016.03;;;10.14;100.00
60465;BME280;46314;52.392;9.758;2024-03-23T02:22:07;100014.91;;;9.92;100.00
60465;BME280;46314;52.392;9.758;2024-03-23T02:24:33;100007.69;;;9.55;100.00
60465;BME280;46314;52.392;9.758;2024-03-23T02:26:59;99997.63;;;9.73;100.00
60465;BME280;46314;52.392;9.758;2024-03-23T02:29:24;99993.59;;;9.28;100.00
60465;BME280;46314;52.392;9.758;2024-03-23T02:31:50;99988.16;;;9.74;100.00
60465;BME280;46314;52.392;9.758;2024-03-23T02:34:15;99994.91;;;9.81;100.00
60465;BME280;46314;52.392;9.758;2024-03-23T02:36:41;99991.50;;;9.84;100.00
60465;BME280;46314;52.392;9.758;2024-03-23T02:39:06;99988.31;;;10.14;100.00
60465;BME280;46314;52.392;9.758;2024-03-23T02:41:33;99985.50;;;10.28;100.00
60465;BME280;46314;52.392;9.758;2024-03-23T02:43:59;99980.75;;;9.83;100.00
60465;BME280;46314;52.392;9.758;2024-03-23T02:46:24;99980.00;;;9.91;100.00
60465;BME280;46314;52.392;9.758;2024-03-23T02:48:50;99980.63;;;10.11;100.00
60465;BME280;46314;52.392;9.758;2024-03-23T02:51:15;99975.09;;;10.11;100.00
60465;BME280;46314;52.392;9.758;2024-03-23T02:53:41;99960.81;;;9.95;100.00
60465;BME280;46314;52.392;9.758;2024-03-23T02:56:06;99955.44;;;9.76;100.00
60465;BME280;46314;52.392;9.758;2024-03-23T02:58:33;99958.03;;;9.95;100.00
60465;BME280;46314;52.392;9.758;2024-03-23T03:00:58;99964.44;;;10.04;100.00
60465;BME280;46314;52.392;9.758;2024-03-23T03:03:24;99960.13;;;9.89;100.00
60465;BME280;46314;52.392;9.758;2024-03-23T03:05:55;99968.94;;;10.14;100.00
60465;BME280;46314;52.392;9.758;2024-03-23T03:08:20;99959.50;;;9.92;100.00
60465;BME280;46314;52.392;9.758;2024-03-23T03:10:45;99961.63;;;9.73;100.00
60465;BME280;46314;52.392;9.758;2024-03-23T03:13:11;99962.56;;;9.91;100.00
60465;BME280;46314;52.392;9.758;2024-03-23T03:15:39;99956.84;;;10.10;100.00
60465;BME280;46314;52.392;9.758;2024-03-23T03:18:05;99956.97;;;9.82;100.00
60465;BME280;46314;52.392;9.758;2024-03-23T03:20:30;99947.44;;;9.52;100.00
60465;BME280;46314;52.392;9.758;2024-03-23T03:22:56;99941.84;;;9.88;100.00
60465;BME280;46314;52.392;9.758;2024-03-23T03:25:21;99950.91;;;10.02;100.00
60465;BME280;46314;52.392;9.758;2024-03-23T03:27:47;99961.59;;;10.18;100.00
60465;BME280;46314;52.392;9.758;2024-03-23T03:30:13;99948.69;;;9.32;100.00
60465;BME280;46314;52.392;9.758;2024-03-23T03:32:40;99944.31;;;9.53;100.00
60465;BME280;46314;52.392;9.758;2024-03-23T03:35:05;99943.34;;;9.35;100.00
60465;BME280;46314;52.392;9.758;2024-03-23T03:37:31;99945.81;;;9.37;100.00
60465;BME280;46314;52.392;9.758;2024-03-23T03:39:56;99950.41;;;9.78;100.00
60465;BME280;46314;52.392;9.758;2024-03-23T03:42:22;99946.25;;;9.66;100.00
60465;BME280;46314;52.392;9.758;2024-03-23T03:44:47;99943.25;;;9.40;100.00
60465;BME280;46314;52.392;9.758;2024-03-23T03:47:13;99939.50;;;9.59;100.00
60465;BME280;46314;52.392;9.758;2024-03-23T03:49:40;99943.06;;;9.73;100.00
60465;BME280;46314;52.392;9.758;2024-03-23T03:52:05;99938.16;;;9.20;100.00
60465;BME280;46314;52.392;9.758;2024-03-23T03:54:31;99940.16;;;9.78;100.00
60465;BME280;46314;52.392;9.758;2024-03-23T03:56:56;99935.72;;;9.55;100.00
60465;BME280;46314;52.392;9.758;2024-03-23T03:59:22;99942.69;;;9.89;100.00
60465;BME280;46314;52.392;9.758;2024-03-23T04:01:47;99931.78;;;9.70;100.00
60465;BME280;46314;52.392;9.758;2024-03-23T04:04:13;99940.72;;;9.89;100.00
60465;BME280;46314;52.392;9.758;2024-03-23T04:06:39;99948.59;;;9.37;100.00
60465;BME280;46314;52.392;9.758;2024-03-23T04:09:05;99953.69;;;9.43;100.00
60465;BME280;46314;52.392;9.758;2024-03-23T04:11:30;99932.94;;;9.18;100.00
60465;BME280;46314;52.392;9.758;2024-03-23T04:13:56;99916.66;;;9.53;100.00
60465;BME280;46314;52.392;9.758;2024-03-23T04:16:26;99936.75;;;10.04;100.00
60465;BME280;46314;52.392;9.758;2024-03-23T04:18:51;99927.88;;;9.71;100.00
60465;BME280;46314;52.392;9.758;2024-03-23T04:21:17;99923.03;;;9.03;100.00
60465;BME280;46314;52.392;9.758;2024-03-23T04:23:43;99917.63;;;9.94;100.00
60465;BME280;46314;52.392;9.758;2024-03-23T04:26:09;99916.66;;;9.76;100.00
60465;BME280;46314;52.392;9.758;2024-03-23T04:28:34;99920.75;;;9.19;97.82
60465;BME280;46314;52.392;9.758;2024-03-23T04:31:03;99916.38;;;8.77;100.00
60465;BME280;46314;52.392;9.758;2024-03-23T04:33:28;99902.88;;;8.89;100.00
60465;BME280;46314;52.392;9.758;2024-03-23T04:35:54;99906.25;;;8.58;100.00
60465;BME280;46314;52.392;9.758;2024-03-23T04:38:19;99906.94;;;9.42;100.00
60465;BME280;46314;52.392;9.758;2024-03-23T04:40:53;99899.97;;;9.08;100.00
60465;BME280;46314;52.392;9.758;2024-03-23T04:43:19;99902.94;;;9.12;100.00
60465;BME280;46314;52.392;9.758;2024-03-23T04:45:44;99897.41;;;9.12;100.00
60465;BME280;46314;52.392;9.758;2024-03-23T04:48:10;99906.41;;;9.03;100.00
60465;BME280;46314;52.392;9.758;2024-03-23T04:50:35;99905.09;;;9.01;100.00
60465;BME280;46314;52.392;9.758;2024-03-23T04:53:01;99895.66;;;9.02;100.00
60465;BME280;46314;52.392;9.758;2024-03-23T04:55:26;99900.88;;;9.03;100.00
60465;BME280;46314;52.392;9.758;2024-03-23T04:57:53;99909.59;;;9.10;100.00
60465;BME280;46314;52.392;9.758;2024-03-23T05:00:19;99907.00;;;9.14;100.00
60465;BME280;46314;52.392;9.758;2024-03-23T05:02:44;99905.06;;;9.51;100.00
60465;BME280;46314;52.392;9.758;2024-03-23T05:05:10;99913.19;;;9.47;100.00
60465;BME280;46314;52.392;9.758;2024-03-23T05:07:35;99897.78;;;9.55;100.00
60465;BME280;46314;52.392;9.758;2024-03-23T05:10:01;99892.88;;;9.75;97.30
60465;BME280;46314;52.392;9.758;2024-03-23T05:12:26;99882.41;;;9.49;98.22
60465;BME280;46314;52.392;9.758;2024-03-23T05:14:53;99884.44;;;9.35;100.00
60465;BME280;46314;52.392;9.758;2024-03-23T05:17:19;99876.56;;;9.51;97.82
60465;BME280;46314;52.392;9.758;2024-03-23T05:19:44;99880.84;;;8.70;100.00
60465;BME280;46314;52.392;9.758;2024-03-23T05:22:10;99884.28;;;8.20;100.00
60465;BME280;46314;52.392;9.758;2024-03-23T05:24:35;99877.63;;;9.18;95.86
60465;BME280;46314;52.392;9.758;2024-03-23T05:27:01;99887.09;;;8.76;88.82
60465;BME280;46314;52.392;9.758;2024-03-23T05:29:26;99884.16;;;8.44;95.19
60465;BME280;46314;52.392;9.758;2024-03-23T05:31:53;99887.06;;;8.20;91.97
60465;BME280;46314;52.392;9.758;2024-03-23T05:34:18;99884.88;;;8.64;92.21
60465;BME280;46314;52.392;9.758;2024-03-23T05:36:44;99878.66;;;9.08;92.66
60465;BME280;46314;52.392;9.758;2024-03-23T05:39:09;99871.78;;;9.42;89.24
60465;BME280;46314;52.392;9.758;2024-03-23T05:41:35;99873.97;;;8.40;97.43
60465;BME280;46314;52.392;9.758;2024-03-23T05:44:00;99881.44;;;8.95;98.59
60465;BME280;46314;52.392;9.758;2024-03-23T05:46:26;99872.75;;;8.87;87.84
60465;BME280;46314;52.392;9.758;2024-03-23T05:48:53;99882.22;;;9.09;92.08
60465;BME280;46314;52.392;9.758;2024-03-23T05:51:19;99882.69;;;9.25;91.32
60465;BME280;46314;52.392;9.758;2024-03-23T05:53:44;99860.97;;;8.82;90.95
60465;BME280;46314;52.392;9.758;2024-03-23T05:56:10;99850.47;;;9.06;87.57
60465;BME280;46314;52.392;9.758;2024-03-23T05:58:35;99853.75;;;9.08;91.44
60465;BME280;46314;52.392;9.758;2024-03-23T06:01:01;99859.44;;;8.76;96.47
60465;BME280;46314;52.392;9.758;2024-03-23T06:03:27;99854.69;;;9.04;95.92
60465;BME280;46314;52.392;9.758;2024-03-23T06:05:55;99859.53;;;9.35;92.65
60465;BME280;46314;52.392;9.758;2024-03-23T06:08:21;99864.25;;;9.34;92.03
60465;BME280;46314;52.392;9.758;2024-03-23T06:10:46;99861.53;;;9.20;91.58
60465;BME280;46314;52.392;9.758;2024-03-23T06:13:13;99858.56;;;9.17;92.21
60465;BME280;46314;52.392;9.758;2024-03-23T06:15:38;99867.13;;;9.29;94.53
60465;BME280;46314;52.392;9.758;2024-03-23T06:18:04;99856.38;;;9.50;93.86
60465;BME280;46314;52.392;9.758;2024-03-23T06:20:30;99856.13;;;9.01;94.40
60465;BME280;46314;52.392;9.758;2024-03-23T06:22:57;99851.75;;;9.23;92.52
60465;BME280;46314;52.392;9.758;2024-03-23T06:25:22;99847.06;;;9.23;96.00
60465;BME280;46314;52.392;9.758;2024-03-23T06:27:48;99853.91;;;8.62;93.17
60465;BME280;46314;52.392;9.758;2024-03-23T06:30:13;99849.31;;;8.71;91.78
60465;BME280;46314;52.392;9.758;2024-03-23T06:32:39;99850.25;;;8.52;95.97
60465;BME280;46314;52.392;9.758;2024-03-23T06:35:05;99846.22;;;8.86;94.61
60465;BME280;46314;52.392;9.758;2024-03-23T06:37:30;99860.69;;;8.56;95.51
60465;BME280;46314;52.392;9.758;2024-03-23T06:39:57;99861.41;;;8.47;99.60
60465;BME280;46314;52.392;9.758;2024-03-23T06:42:23;99866.28;;;8.37;99.93
60465;BME280;46314;52.392;9.758;2024-03-23T06:44:48;99865.75;;;9.04;97.24
60465;BME280;46314;52.392;9.758;2024-03-23T06:47:14;99877.16;;;9.25;96.05
60465;BME280;46314;52.392;9.758;2024-03-23T06:49:39;99865.56;;;9.37;97.49
60465;BME280;46314;52.392;9.758;2024-03-23T06:52:05;99874.47;;;9.34;96.67
60465;BME280;46314;52.392;9.758;2024-03-23T06:54:30;99865.13;;;9.07;100.00
60465;BME280;46314;52.392;9.758;2024-03-23T06:56:57;99865.13;;;9.66;98.11
60465;BME280;46314;52.392;9.758;2024-03-23T06:59:23;99865.94;;;9.66;96.57
60465;BME280;46314;52.392;9.758;2024-03-23T07:01:48;99861.34;;;9.84;96.09
60465;BME280;46314;52.392;9.758;2024-03-23T07:04:14;99862.31;;;9.21;100.00
60465;BME280;46314;52.392;9.758;2024-03-23T07:06:42;99863.38;;;9.70;100.00
60465;BME280;46314;52.392;9.758;2024-03-23T07:09:08;99861.75;;;9.46;99.71
60465;BME280;46314;52.392;9.758;2024-03-23T07:11:33;99862.53;;;9.47;100.00
60465;BME280;46314;52.392;9.758;2024-03-23T07:14:00;99864.88;;;9.76;99.70
60465;BME280;46314;52.392;9.758;2024-03-23T07:16:26;99867.56;;;9.22;100.00
60465;BME280;46314;52.392;9.758;2024-03-23T07:18:52;99865.38;;;9.56;100.00
60465;BME280;46314;52.392;9.758;2024-03-23T07:21:17;99866.63;;;9.95;100.00
60465;BME280;46314;52.392;9.758;2024-03-23T07:23:43;99868.88;;;9.93;100.00
60465;BME280;46314;52.392;9.758;2024-03-23T07:26:08;99867.06;;;9.65;100.00
60465;BME280;46314;52.392;9.758;2024-03-23T07:28:34;99866.50;;;9.77;100.00
60465;BME280;46314;52.392;9.758;2024-03-23T07:31:03;99873.63;;;9.47;100.00
60465;BME280;46314;52.392;9.758;2024-03-23T07:33:29;99876.94;;;9.35;100.00
60465;BME280;46314;52.392;9.758;2024-03-23T07:35:55;99874.81;;;9.55;100.00
60465;BME280;46314;52.392;9.758;2024-03-23T07:38:21;99875.78;;;9.73;100.00
60465;BME280;46314;52.392;9.758;2024-03-23T07:40:46;99872.66;;;9.74;100.00
60465;BME280;46314;52.392;9.758;2024-03-23T07:43:12;99874.38;;;9.61;100.00
60465;BME280;46314;52.392;9.758;2024-03-23T07:45:37;99868.91;;;9.47;100.00
60465;BME280;46314;52.392;9.758;2024-03-23T07:48:05;99876.25;;;9.29;100.00
60465;BME280;46314;52.392;9.758;2024-03-23T07:50:30;99864.44;;;9.60;100.00
60465;BME280;46314;52.392;9.758;2024-03-23T07:52:56;99870.84;;;9.47;100.00
60465;BME280;46314;52.392;9.758;2024-03-23T07:55:21;99864.25;;;9.34;100.00
60465;BME280;46314;52.392;9.758;2024-03-23T07:57:47;99869.59;;;8.66;100.00
60465;BME280;46314;52.392;9.758;2024-03-23T08:00:13;99867.38;;;9.05;100.00
60465;BME280;46314;52.392;9.758;2024-03-23T08:02:39;99867.06;;;9.20;100.00
60465;BME280;46314;52.392;9.758;2024-03-23T08:05:06;99871.06;;;9.14;100.00
60465;BME280;46314;52.392;9.758;2024-03-23T08:07:31;99870.81;;;9.24;100.00
60465;BME280;46314;52.392;9.758;2024-03-23T08:09:57;99866.59;;;9.04;100.00
60465;BME280;46314;52.392;9.758;2024-03-23T08:12:22;99868.69;;;8.71;100.00
60465;BME280;46314;52.392;9.758;2024-03-23T08:14:48;99869.81;;;9.20;100.00
60465;BME280;46314;52.392;9.758;2024-03-23T08:17:13;99872.97;;;9.27;100.00
60465;BME280;46314;52.392;9.758;2024-03-23T08:19:39;99864.31;;;9.06;100.00
60465;BME280;46314;52.392;9.758;2024-03-23T08:22:06;99866.13;;;9.70;100.00
60465;BME280;46314;52.392;9.758;2024-03-23T08:24:31;99861.94;;;9.73;100.00
60465;BME280;46314;52.392;9.758;2024-03-23T08:26:56;99858.50;;;9.53;100.00
60465;BME280;46314;52.392;9.758;2024-03-23T08:29:22;99868.03;;;9.83;100.00
60465;BME280;46314;52.392;9.758;2024-03-23T08:31:47;99871.97;;;9.46;100.00
60465;BME280;46314;52.392;9.758;2024-03-23T08:34:13;99880.78;;;9.93;100.00
60465;BME280;46314;52.392;9.758;2024-03-23T08:36:38;99877.75;;;10.03;100.00
60465;BME280;46314;52.392;9.758;2024-03-23T08:39:05;99870.34;;;10.53;94.97
60465;BME280;46314;52.392;9.758;2024-03-23T08:41:31;99871.91;;;10.76;92.88
60465;BME280;46314;52.392;9.758;2024-03-23T08:43:56;99871.75;;;10.33;95.10
60465;BME280;46314;52.392;9.758;2024-03-23T08:46:22;99870.63;;;10.42;90.38
60465;BME280;46314;52.392;9.758;2024-03-23T08:48:47;99877.28;;;9.79;93.62
60465;BME280;46314;52.392;9.758;2024-03-23T08:51:14;99877.06;;;9.98;91.50
60465;BME280;46314;52.392;9.758;2024-03-23T08:53:40;99868.66;;;9.58;90.76
60465;BME280;46314;52.392;9.758;2024-03-23T08:56:08;99874.00;;;9.77;88.58
60465;BME280;46314;52.392;9.758;2024-03-23T08:58:35;99863.63;;;10.14;87.89
60465;BME280;46314;52.392;9.758;2024-03-23T09:01:07;99880.09;;;9.65;93.88
60465;BME280;46314;52.392;9.758;2024-03-23T09:03:32;99877.75;;;10.03;86.31
60465;BME280;46314;52.392;9.758;2024-03-23T09:05:59;99871.63;;;10.15;83.53
60465;BME280;46314;52.392;9.758;2024-03-23T09:08:24;99869.78;;;10.73;78.99
60465;BME280;46314;52.392;9.758;2024-03-23T09:10:52;99869.25;;;10.63;80.51
60465;BME280;46314;52.392;9.758;2024-03-23T09:13:19;99872.69;;;10.05;86.00
60465;BME280;46314;52.392;9.758;2024-03-23T09:15:48;99882.50;;;9.58;87.45
60465;BME280;46314;52.392;9.758;2024-03-23T09:18:14;99880.94;;;10.51;83.71
60465;BME280;46314;52.392;9.758;2024-03-23T09:20:40;99878.25;;;10.05;83.09
60465;BME280;46314;52.392;9.758;2024-03-23T09:23:05;99875.31;;;10.73;80.18
60465;BME280;46314;52.392;9.758;2024-03-23T09:25:31;99877.00;;;10.43;81.08
60465;BME280;46314;52.392;9.758;2024-03-23T09:27:57;99870.13;;;10.40;81.67
60465;BME280;46314;52.392;9.758;2024-03-23T09:30:24;99881.25;;;10.98;79.47
60465;BME280;46314;52.392;9.758;2024-03-23T09:32:50;99877.03;;;11.44;78.11
60465;BME280;46314;52.392;9.758;2024-03-23T09:35:15;99873.66;;;10.72;79.88
60465;BME280;46314;52.392;9.758;2024-03-23T09:37:41;99863.16;;;9.89;82.50
60465;BME280;46314;52.392;9.758;2024-03-23T09:40:09;99866.94;;;9.93;86.03
60465;BME280;46314;52.392;9.758;2024-03-23T09:42:35;99861.88;;;9.95;84.66
60465;BME280;46314;52.392;9.758;2024-03-23T09:45:01;99867.69;;;10.16;85.01
60465;BME280;46314;52.392;9.758;2024-03-23T09:47:28;99867.56;;;10.21;84.13
60465;BME280;46314;52.392;9.758;2024-03-23T09:49:54;99861.91;;;10.67;81.59
60465;BME280;46314;52.392;9.758;2024-03-23T09:52:20;99864.97;;;11.40;76.26
60465;BME280;46314;52.392;9.758;2024-03-23T09:54:45;99862.19;;;11.23;70.77
60465;BME280;46314;52.392;9.758;2024-03-23T09:57:11;99857.44;;;11.58;67.65
60465;BME280;46314;52.392;9.758;2024-03-23T09:59:36;99857.75;;;11.04;71.34
60465;BME280;46314;52.392;9.758;2024-03-23T10:02:02;99859.41;;;11.23;68.96
60465;BME280;46314;52.392;9.758;2024-03-23T10:04:40;99863.31;;;11.13;67.23
60465;BME280;46314;52.392;9.758;2024-03-23T10:07:12;99859.09;;;11.24;67.31
60465;BME280;46314;52.392;9.758;2024-03-23T10:09:38;99860.00;;;10.93;65.97
60465;BME280;46314;52.392;9.758;2024-03-23T10:12:08;99856.78;;;10.20;67.86
60465;BME280;46314;52.392;9.758;2024-03-23T10:14:34;99854.09;;;10.77;67.95
60465;BME280;46314;52.392;9.758;2024-03-23T10:17:11;99856.97;;;11.39;63.91
60465;BME280;46314;52.392;9.758;2024-03-23T10:19:39;99856.25;;;11.94;67.27
60465;BME280;46314;52.392;9.758;2024-03-23T10:22:04;99851.38;;;11.73;63.26
60465;BME280;46314;52.392;9.758;2024-03-23T10:24:29;99854.66;;;11.58;62.39
60465;BME280;46314;52.392;9.758;2024-03-23T10:26:56;99850.09;;;11.36;62.12
60465;BME280;46314;52.392;9.758;2024-03-23T10:29:21;99850.91;;;11.19;64.75
60465;BME280;46314;52.392;9.758;2024-03-23T10:31:47;99848.13;;;11.10;61.27
60465;BME280;46314;52.392;9.758;2024-03-23T10:34:12;99841.59;;;11.24;59.29
60465;BME280;46314;52.392;9.758;2024-03-23T10:36:40;99850.53;;;11.82;58.87
60465;BME280;46314;52.392;9.758;2024-03-23T10:39:07;99848.31;;;13.41;58.06
60465;BME280;46314;52.392;9.758;2024-03-23T10:41:32;99854.38;;;13.14;56.35
60465;BME280;46314;52.392;9.758;2024-03-23T10:44:00;99845.66;;;13.45;55.15
60465;BME280;46314;52.392;9.758;2024-03-23T10:46:26;99848.13;;;12.96;55.07
60465;BME280;46314;52.392;9.758;2024-03-23T10:48:52;99862.94;;;10.88;62.03
60465;BME280;46314;52.392;9.758;2024-03-23T10:51:18;99888.84;;;9.81;67.50
60465;BME280;46314;52.392;9.758;2024-03-23T10:53:46;99899.34;;;9.47;72.10
60465;BME280;46314;52.392;9.758;2024-03-23T10:56:12;99905.72;;;8.98;76.17
60465;BME280;46314;52.392;9.758;2024-03-23T10:58:40;99910.53;;;9.06;80.02
60465;BME280;46314;52.392;9.758;2024-03-23T11:01:06;99905.53;;;8.94;83.04
60465;BME280;46314;52.392;9.758;2024-03-23T11:03:34;99911.66;;;9.05;83.52
60465;BME280;46314;52.392;9.758;2024-03-23T11:06:00;99899.03;;;8.99;79.70
60465;BME280;46314;52.392;9.758;2024-03-23T11:08:34;99881.13;;;9.10;77.69
60465;BME280;46314;52.392;9.758;2024-03-23T11:11:14;99893.53;;;10.26;72.21
60465;BME280;46314;52.392;9.758;2024-03-23T11:13:40;99899.13;;;10.74;72.50
60465;BME280;46314;52.392;9.758;2024-03-23T11:16:16;99889.94;;;11.23;70.12
60465;BME280;46314;52.392;9.758;2024-03-23T11:18:42;99900.38;;;11.69;68.76
60465;BME280;46314;52.392;9.758;2024-03-23T11:21:08;99901.63;;;10.45;73.81
60465;BME280;46314;52.392;9.758;2024-03-23T11:23:34;99897.44;;;8.98;82.57
60465;BME280;46314;52.392;9.758;2024-03-23T11:25:59;99887.72;;;9.59;83.19
60465;BME280;46314;52.392;9.758;2024-03-23T11:28:26;99889.91;;;9.48;83.86
60465;BME280;46314;52.392;9.758;2024-03-23T11:30:51;99878.97;;;9.89;81.13
60465;BME280;46314;52.392;9.758;2024-03-23T11:33:17;99872.16;;;9.95;79.73
60465;BME280;46314;52.392;9.758;2024-03-23T11:35:43;99869.50;;;11.01;75.66
60465;BME280;46314;52.392;9.758;2024-03-23T11:38:10;99872.28;;;11.27;74.21
60465;BME280;46314;52.392;9.758;2024-03-23T11:40:37;99880.88;;;10.73;78.83
60465;BME280;46314;52.392;9.758;2024-03-23T11:43:04;99875.38;;;10.42;79.40
60465;BME280;46314;52.392;9.758;2024-03-23T11:45:36;99884.50;;;11.00;75.47
60465;BME280;46314;52.392;9.758;2024-03-23T11:48:06;99892.53;;;10.53;76.55
60465;BME280;46314;52.392;9.758;2024-03-23T11:50:33;99906.88;;;9.92;82.66
60465;BME280;46314;52.392;9.758;2024-03-23T11:53:12;99925.47;;;9.05;84.59
60465;BME280;46314;52.392;9.758;2024-03-23T11:55:45;99917.31;;;8.86;88.37
60465;BME280;46314;52.392;9.758;2024-03-23T11:58:11;99907.41;;;9.80;90.01
60465;BME280;46314;52.392;9.758;2024-03-23T12:00:39;99897.69;;;9.60;86.05
60465;BME280;46314;52.392;9.758;2024-03-23T12:03:05;99890.75;;;9.94;84.81
60465;BME280;46314;52.392;9.758;2024-03-23T12:05:31;99880.94;;;10.51;80.26
60465;BME280;46314;52.392;9.758;2024-03-23T12:08:15;99872.22;;;9.81;83.42
60465;BME280;46314;52.392;9.758;2024-03-23T12:10:41;99873.13;;;9.68;86.78
60465;BME280;46314;52.392;9.758;2024-03-23T12:13:06;99870.28;;;10.13;83.13
60465;BME280;46314;52.392;9.758;2024-03-23T12:15:33;99860.31;;;9.35;84.53
60465;BME280;46314;52.392;9.758;2024-03-23T12:18:07;99855.81;;;9.39;86.12
60465;BME280;46314;52.392;9.758;2024-03-23T12:20:33;99864.81;;;9.45;83.90
60465;BME280;46314;52.392;9.758;2024-03-23T12:23:05;99852.78;;;9.27;83.86
60465;BME280;46314;52.392;9.758;2024-03-23T12:25:31;99859.22;;;9.59;85.52
60465;BME280;46314;52.392;9.758;2024-03-23T12:27:58;99858.16;;;10.00;85.03
60465;BME280;46314;52.392;9.758;2024-03-23T12:30:23;99857.72;;;10.07;83.38
60465;BME280;46314;52.392;9.758;2024-03-23T12:32:49;99868.44;;;9.99;84.71
60465;BME280;46314;52.392;9.758;2024-03-23T12:35:16;99868.94;;;10.01;84.07
60465;BME280;46314;52.392;9.758;2024-03-23T12:37:41;99866.94;;;9.25;89.00
60465;BME280;46314;52.392;9.758;2024-03-23T12:40:08;99867.06;;;9.65;86.62
60465;BME280;46314;52.392;9.758;2024-03-23T12:42:33;99868.75;;;9.98;85.92
60465;BME280;46314;52.392;9.758;2024-03-23T12:44:59;99869.75;;;10.02;83.76
60465;BME280;46314;52.392;9.758;2024-03-23T12:47:24;99876.28;;;9.75;85.66
60465;BME280;46314;52.392;9.758;2024-03-23T12:49:50;99877.63;;;9.41;85.71
60465;BME280;46314;52.392;9.758;2024-03-23T12:52:17;99880.00;;;9.34;84.85
60465;BME280;46314;52.392;9.758;2024-03-23T12:54:43;99867.78;;;9.94;79.63
60465;BME280;46314;52.392;9.758;2024-03-23T12:57:08;99869.41;;;9.50;76.25
60465;BME280;46314;52.392;9.758;2024-03-23T12:59:34;99859.28;;;9.45;73.58
60465;BME280;46314;52.392;9.758;2024-03-23T13:01:59;99862.97;;;9.04;73.05
60465;BME280;46314;52.392;9.758;2024-03-23T13:04:25;99864.94;;;9.03;75.36
60465;BME280;46314;52.392;9.758;2024-03-23T13:06:50;99861.63;;;9.15;75.11
60465;BME280;46314;52.392;9.758;2024-03-23T13:09:17;99858.84;;;9.52;70.65
60465;BME280;46314;52.392;9.758;2024-03-23T13:11:43;99858.66;;;10.65;67.51
60465;BME280;46314;52.392;9.758;2024-03-23T13:14:08;99857.25;;;10.93;67.97
60465;BME280;46314;52.392;9.758;2024-03-23T13:16:34;99857.44;;;11.14;66.72
60465;BME280;46314;52.392;9.758;2024-03-23T13:18:59;99847.66;;;11.17;67.48
60465;BME280;46314;52.392;9.758;2024-03-23T13:21:25;99839.91;;;10.70;69.05
60465;BME280;46314;52.392;9.758;2024-03-23T13:23:51;99848.13;;;11.02;68.14
60465;BME280;46314;52.392;9.758;2024-03-23T13:26:17;99837.13;;;10.70;67.92
60465;BME280;46314;52.392;9.758;2024-03-23T13:28:43;99839.94;;;10.88;68.05
60465;BME280;46314;52.392;9.758;2024-03-23T13:31:08;99840.91;;;10.92;67.50
60465;BME280;46314;52.392;9.758;2024-03-23T13:33:34;99841.03;;;10.78;67.56
60465;BME280;46314;52.392;9.758;2024-03-23T13:36:00;99843.28;;;10.58;68.09
60465;BME280;46314;52.392;9.758;2024-03-23T13:38:25;99832.56;;;10.26;70.71
60465;BME280;46314;52.392;9.758;2024-03-23T13:40:55;99839.50;;;10.14;71.62
60465;BME280;46314;52.392;9.758;2024-03-23T13:43:23;99834.72;;;9.75;73.57
60465;BME280;46314;52.392;9.758;2024-03-23T13:45:51;99828.31;;;10.68;68.75
60465;BME280;46314;52.392;9.758;2024-03-23T13:48:19;99831.31;;;10.09;70.83